Time;durP1;ratioP1;P1;durP2;ratioP2;P2;SDS_P1;SDS_P2;PMS_P1;PMS_P2;Temp;Humidity;BMP_temperature;BMP_pressure;BME280_temperature;BME280_humidity;BME280_pressure;Samples;Min_cycle;Max_cycle;Signal;HPM_P1;HPM_P2
2023/08/10 00:02:13;;;;;;;7.63;2.85;;;;;;;;;;7371923;19;20018;-70
2023/08/10 00:04:39;;;;;;;6.22;3.22;;;;;;;;;;7364083;19;20953;-70
2023/08/10 00:07:04;;;;;;;5.20;3.25;;;;;;;;;;7375538;19;20108;-71
2023/08/10 00:09:30;;;;;;;5.25;3.33;;;;;;;;;;7380946;19;20037;-70
2023/08/10 00:11:55;;;;;;;5.93;3.50;;;;;;;;;;7366129;19;20006;-71
2023/08/10 00:14:21;;;;;;;4.72;3.08;;;;;;;;;;7364133;19;20075;-70
2023/08/10 00:16:46;;;;;;;6.97;3.35;;;;;;;;;;7365344;19;20015;-70
2023/08/10 00:19:11;;;;;;;8.02;3.80;;;;;;;;;;7366104;19;20347;-71
2023/08/10 00:21:36;;;;;;;7.28;3.67;;;;;;;;;;7390394;19;20019;-70
2023/08/10 00:24:02;;;;;;;5.10;3.40;;;;;;;;;;7366868;19;20006;-70
2023/08/10 00:26:28;;;;;;;7.68;3.38;;;;;;;;;;7366818;19;20023;-71
2023/08/10 00:28:53;;;;;;;6.47;3.35;;;;;;;;;;7368460;19;20006;-72
2023/08/10 00:31:19;;;;;;;6.78;3.58;;;;;;;;;;7368689;19;20046;-72
2023/08/10 00:33:44;;;;;;;6.30;3.38;;;;;;;;;;7388964;19;20038;-71
2023/08/10 00:36:10;;;;;;;5.90;3.42;;;;;;;;;;7368538;19;20074;-71
2023/08/10 00:38:37;;;;;;;6.70;3.80;;;;;;;;;;7368251;19;20007;-71
2023/08/10 00:41:03;;;;;;;9.98;3.17;;;;;;;;;;7369852;19;20475;-71
2023/08/10 00:43:28;;;;;;;6.32;2.88;;;;;;;;;;7371359;19;20010;-70
2023/08/10 00:45:54;;;;;;;6.93;3.53;;;;;;;;;;7389623;19;20447;-71
2023/08/10 00:48:20;;;;;;;8.75;3.60;;;;;;;;;;7368124;19;20010;-71
2023/08/10 00:50:47;;;;;;;5.63;3.50;;;;;;;;;;7368065;19;20476;-71
2023/08/10 00:53:14;;;;;;;5.80;3.70;;;;;;;;;;7367621;19;20085;-71
2023/08/10 00:55:40;;;;;;;13.10;3.80;;;;;;;;;;7368034;19;20018;-71
2023/08/10 00:58:06;;;;;;;9.57;4.15;;;;;;;;;;7368274;19;20014;-71
2023/08/10 01:00:31;;;;;;;11.55;4.43;;;;;;;;;;7388634;19;20011;-71
2023/08/10 01:02:56;;;;;;;8.52;4.70;;;;;;;;;;7367419;19;20031;-70
2023/08/10 01:05:23;;;;;;;11.23;4.78;;;;;;;;;;7366794;19;20086;-70
2023/08/10 01:08:00;;;;;;;7.18;4.88;;;;;;;;;;7370509;19;20108;-71
2023/08/10 01:10:41;;;;;;;9.75;5.30;;;;;;;;;;7376383;19;20000;-71
2023/08/10 01:13:21;;;;;;;12.63;5.05;;;;;;;;;;7376714;19;20002;-71
2023/08/10 01:15:51;;;;;;;7.85;4.70;;;;;;;;;;7396955;19;20007;-73
2023/08/10 01:18:24;;;;;;;10.27;4.22;;;;;;;;;;7375204;19;20019;-70
2023/08/10 01:20:50;;;;;;;6.88;3.83;;;;;;;;;;7373638;19;20365;-70
2023/08/10 01:23:26;;;;;;;7.25;4.13;;;;;;;;;;7374782;19;20829;-70
2023/08/10 01:25:52;;;;;;;6.95;3.78;;;;;;;;;;7373290;19;20010;-71
2023/08/10 01:28:18;;;;;;;7.85;4.13;;;;;;;;;;7374112;19;20007;-70
2023/08/10 01:30:44;;;;;;;8.05;4.22;;;;;;;;;;7395863;19;20014;-70
2023/08/10 01:33:10;;;;;;;8.07;3.97;;;;;;;;;;7373670;19;20010;-70
2023/08/10 01:35:36;;;;;;;7.07;4.05;;;;;;;;;;7373659;19;20017;-71
2023/08/10 01:38:03;;;;;;;8.40;3.70;;;;;;;;;;7374031;19;20006;-71
2023/08/10 01:40:29;;;;;;;7.07;4.10;;;;;;;;;;7373308;19;20046;-71
2023/08/10 01:42:54;;;;;;;7.45;3.88;;;;;;;;;;7393880;19;20018;-71
2023/08/10 01:45:19;;;;;;;9.07;3.80;;;;;;;;;;7367283;19;20002;-70
2023/08/10 01:47:55;;;;;;;9.45;3.70;;;;;;;;;;7370080;19;20019;-69
2023/08/10 01:50:24;;;;;;;5.75;3.85;;;;;;;;;;7370528;19;20060;-70
2023/08/10 01:53:01;;;;;;;7.78;4.20;;;;;;;;;;7371249;19;20098;-71
2023/08/10 01:55:26;;;;;;;6.85;3.85;;;;;;;;;;7369495;19;20026;-71
2023/08/10 01:57:51;;;;;;;8.65;4.28;;;;;;;;;;7394010;19;20006;-71
2023/08/10 02:00:17;;;;;;;9.82;4.10;;;;;;;;;;7372653;19;20472;-71
2023/08/10 02:02:42;;;;;;;6.75;3.80;;;;;;;;;;7373108;19;20006;-71
2023/08/10 02:05:10;;;;;;;8.63;4.38;;;;;;;;;;7368958;19;20014;-71
2023/08/10 02:07:35;;;;;;;8.25;4.70;;;;;;;;;;7374911;19;20011;-71
2023/08/10 02:10:00;;;;;;;7.35;3.65;;;;;;;;;;7397236;19;20342;-71
2023/08/10 02:12:27;;;;;;;9.13;3.90;;;;;;;;;;7372773;19;20485;-71
2023/08/10 02:14:52;;;;;;;6.72;3.80;;;;;;;;;;7370419;19;20006;-71
2023/08/10 02:17:17;;;;;;;7.50;4.10;;;;;;;;;;7372961;19;20013;-71
2023/08/10 02:19:42;;;;;;;7.10;4.10;;;;;;;;;;7370243;19;20374;-71
2023/08/10 02:22:08;;;;;;;6.55;4.00;;;;;;;;;;7372974;19;20010;-70
2023/08/10 02:24:33;;;;;;;11.98;4.20;;;;;;;;;;7391826;19;20010;-70
2023/08/10 02:26:59;;;;;;;9.40;4.20;;;;;;;;;;7371646;19;20035;-70
2023/08/10 02:29:24;;;;;;;8.45;4.40;;;;;;;;;;7371974;19;20011;-72
2023/08/10 02:31:50;;;;;;;7.80;3.70;;;;;;;;;;7373116;19;20059;-71
2023/08/10 02:34:15;;;;;;;6.53;4.38;;;;;;;;;;7370994;19;20359;-71
2023/08/10 02:36:40;;;;;;;7.47;4.20;;;;;;;;;;7393727;19;20002;-73
2023/08/10 02:39:05;;;;;;;6.47;4.10;;;;;;;;;;7372062;19;20015;-71
2023/08/10 02:41:32;;;;;;;6.93;3.88;;;;;;;;;;7372613;19;20574;-71
2023/08/10 02:43:57;;;;;;;6.20;3.90;;;;;;;;;;7370467;19;20036;-70
2023/08/10 02:46:22;;;;;;;7.93;3.78;;;;;;;;;;7370680;19;20014;-71
2023/08/10 02:48:48;;;;;;;6.50;4.00;;;;;;;;;;7394584;19;20360;-71
2023/08/10 02:51:13;;;;;;;6.88;3.92;;;;;;;;;;7369674;19;20014;-70
2023/08/10 02:53:38;;;;;;;6.85;4.00;;;;;;;;;;7367742;19;20043;-71
2023/08/10 02:56:03;;;;;;;9.02;4.05;;;;;;;;;;7367998;19;20014;-70
2023/08/10 02:58:29;;;;;;;6.55;3.47;;;;;;;;;;7367094;19;20010;-71
2023/08/10 03:00:55;;;;;;;6.88;3.78;;;;;;;;;;7390084;19;20010;-71
2023/08/10 03:03:21;;;;;;;6.63;3.75;;;;;;;;;;7367786;19;20002;-71
2023/08/10 03:05:46;;;;;;;7.75;3.80;;;;;;;;;;7367456;19;20009;-72
2023/08/10 03:08:12;;;;;;;7.07;3.50;;;;;;;;;;7371541;19;20082;-71
2023/08/10 03:10:37;;;;;;;7.72;3.63;;;;;;;;;;7371059;19;20014;-71
2023/08/10 03:13:04;;;;;;;7.63;4.10;;;;;;;;;;7392654;19;20026;-72
2023/08/10 03:15:30;;;;;;;7.15;4.10;;;;;;;;;;7368672;19;20388;-71
2023/08/10 03:17:55;;;;;;;9.32;4.75;;;;;;;;;;7370206;19;20007;-71
2023/08/10 03:20:21;;;;;;;6.65;4.50;;;;;;;;;;7371402;19;20010;-71
2023/08/10 03:22:46;;;;;;;6.57;4.22;;;;;;;;;;7371248;19;20583;-72
2023/08/10 03:25:12;;;;;;;6.38;4.38;;;;;;;;;;7367662;19;20013;-71
2023/08/10 03:27:37;;;;;;;8.40;4.30;;;;;;;;;;7390896;19;20006;-71
2023/08/10 03:30:04;;;;;;;8.40;4.95;;;;;;;;;;7370149;19;20070;-71
2023/08/10 03:32:30;;;;;;;6.05;4.28;;;;;;;;;;7370498;19;20006;-71
2023/08/10 03:34:55;;;;;;;5.95;3.63;;;;;;;;;;7369427;19;20042;-71
2023/08/10 03:37:20;;;;;;;6.60;4.15;;;;;;;;;;7401024;19;20019;-69
2023/08/10 03:39:45;;;;;;;11.73;4.30;;;;;;;;;;7429343;19;19995;-71
2023/08/10 03:42:11;;;;;;;8.57;4.28;;;;;;;;;;7387906;19;20010;-71
2023/08/10 03:44:36;;;;;;;7.90;4.72;;;;;;;;;;7368929;19;20018;-72
2023/08/10 03:47:01;;;;;;;7.00;3.72;;;;;;;;;;7368532;19;20014;-71
2023/08/10 03:49:27;;;;;;;6.95;4.63;;;;;;;;;;7364598;19;20017;-71
2023/08/10 03:51:53;;;;;;;8.90;4.55;;;;;;;;;;7392280;19;20010;-71
2023/08/10 03:54:18;;;;;;;7.45;4.40;;;;;;;;;;7368076;19;20023;-71
2023/08/10 03:56:44;;;;;;;11.02;5.30;;;;;;;;;;7368913;19;20006;-72
2023/08/10 03:59:10;;;;;;;6.95;4.82;;;;;;;;;;7369341;19;20014;-71
2023/08/10 04:01:36;;;;;;;8.65;5.03;;;;;;;;;;7365819;19;20097;-71
2023/08/10 04:04:01;;;;;;;8.80;5.20;;;;;;;;;;7389521;19;20045;-71
2023/08/10 04:06:26;;;;;;;12.57;5.30;;;;;;;;;;7367923;19;20014;-71
2023/08/10 04:08:53;;;;;;;8.45;4.88;;;;;;;;;;7367226;19;20388;-71
2023/08/10 04:11:19;;;;;;;7.60;4.88;;;;;;;;;;7366690;19;20034;-72
2023/08/10 04:13:44;;;;;;;9.90;4.97;;;;;;;;;;7366119;19;20006;-71
2023/08/10 04:16:11;;;;;;;9.07;4.85;;;;;;;;;;7366593;19;20002;-71
2023/08/10 04:18:36;;;;;;;7.20;4.38;;;;;;;;;;7387792;19;20119;-72
2023/08/10 04:21:02;;;;;;;8.00;4.60;;;;;;;;;;7367196;19;20006;-71
2023/08/10 04:23:27;;;;;;;6.97;4.63;;;;;;;;;;7369180;19;20685;-71
2023/08/10 04:25:53;;;;;;;7.18;4.40;;;;;;;;;;7368964;19;20018;-70
2023/08/10 04:28:18;;;;;;;7.72;4.40;;;;;;;;;;7369107;19;20006;-70
2023/08/10 04:30:43;;;;;;;8.43;4.65;;;;;;;;;;7390297;19;20076;-70
2023/08/10 04:33:09;;;;;;;7.88;4.35;;;;;;;;;;7368698;19;20019;-70
2023/08/10 04:35:34;;;;;;;7.60;4.30;;;;;;;;;;7366564;19;20018;-72
2023/08/10 04:38:00;;;;;;;7.88;4.35;;;;;;;;;;7368582;19;20035;-71
2023/08/10 04:40:25;;;;;;;9.00;3.95;;;;;;;;;;7368189;19;20022;-71
2023/08/10 04:42:50;;;;;;;6.00;3.42;;;;;;;;;;7388625;19;20077;-70
2023/08/10 04:45:16;;;;;;;5.30;3.60;;;;;;;;;;7365785;19;20031;-70
2023/08/10 04:47:42;;;;;;;8.63;4.22;;;;;;;;;;7368661;19;20021;-71
2023/08/10 04:50:09;;;;;;;6.78;4.13;;;;;;;;;;7368977;19;20011;-70
2023/08/10 04:52:34;;;;;;;7.15;3.90;;;;;;;;;;7368786;19;20010;-70
2023/08/10 04:55:00;;;;;;;9.73;3.70;;;;;;;;;;7387729;19;20011;-71
2023/08/10 04:57:25;;;;;;;9.48;4.15;;;;;;;;;;7367728;19;20011;-71
2023/08/10 04:59:50;;;;;;;6.03;3.88;;;;;;;;;;7368130;19;20023;-71
2023/08/10 05:02:16;;;;;;;6.78;3.65;;;;;;;;;;7362570;19;20034;-71
2023/08/10 05:04:41;;;;;;;6.45;3.72;;;;;;;;;;7365806;19;20003;-70
2023/08/10 05:07:06;;;;;;;7.28;3.95;;;;;;;;;;7361711;19;20065;-69
2023/08/10 05:09:32;;;;;;;6.97;3.80;;;;;;;;;;7387879;19;20046;-69
2023/08/10 05:11:58;;;;;;;8.73;4.07;;;;;;;;;;7367193;19;20006;-70
2023/08/10 05:14:23;;;;;;;6.60;3.60;;;;;;;;;;7365329;19;20033;-69
2023/08/10 05:16:49;;;;;;;7.85;3.83;;;;;;;;;;7367671;19;20112;-70
2023/08/10 05:19:14;;;;;;;9.32;3.92;;;;;;;;;;7366579;19;20012;-70
2023/08/10 05:21:39;;;;;;;6.47;3.65;;;;;;;;;;7388292;19;20038;-70
2023/08/10 05:24:05;;;;;;;11.45;4.63;;;;;;;;;;7364749;19;20421;-70
2023/08/10 05:26:30;;;;;;;11.60;4.20;;;;;;;;;;7363016;19;20035;-70
2023/08/10 05:28:56;;;;;;;11.68;4.45;;;;;;;;;;7366756;19;20075;-70
2023/08/10 05:31:21;;;;;;;8.63;4.40;;;;;;;;;;7365658;19;20005;-71
2023/08/10 05:33:47;;;;;;;11.60;4.50;;;;;;;;;;7385732;19;20003;-70
2023/08/10 05:36:12;;;;;;;7.72;3.80;;;;;;;;;;7366581;19;20023;-70
2023/08/10 05:38:39;;;;;;;10.02;3.88;;;;;;;;;;7366249;19;20014;-73
2023/08/10 05:41:05;;;;;;;6.28;3.33;;;;;;;;;;7366896;19;20010;-71
2023/08/10 05:43:30;;;;;;;7.63;3.95;;;;;;;;;;7365903;19;20605;-71
2023/08/10 05:45:55;;;;;;;7.28;4.10;;;;;;;;;;7387297;19;20027;-72
2023/08/10 05:48:21;;;;;;;6.32;3.78;;;;;;;;;;7366038;19;20581;-71
2023/08/10 05:50:46;;;;;;;6.22;3.50;;;;;;;;;;7367292;19;20377;-71
2023/08/10 05:53:12;;;;;;;7.10;3.65;;;;;;;;;;7365732;19;20106;-71
2023/08/10 05:55:37;;;;;;;6.80;3.75;;;;;;;;;;7371494;19;20015;-70
2023/08/10 05:58:03;;;;;;;8.93;4.18;;;;;;;;;;7396494;19;20003;-71
2023/08/10 06:00:28;;;;;;;9.95;3.58;;;;;;;;;;7376024;19;20469;-71
2023/08/10 06:02:54;;;;;;;7.22;3.63;;;;;;;;;;7379052;19;20006;-71
2023/08/10 06:05:20;;;;;;;8.95;3.92;;;;;;;;;;7369731;19;20011;-71
2023/08/10 06:07:47;;;;;;;7.80;4.43;;;;;;;;;;7372627;19;20018;-71
2023/08/10 06:10:15;;;;;;;11.07;3.95;;;;;;;;;;7370949;19;20500;-72
2023/08/10 06:12:44;;;;;;;8.52;4.15;;;;;;;;;;7393059;19;20250;-71
2023/08/10 06:15:10;;;;;;;6.70;3.40;;;;;;;;;;7367130;19;20038;-71
2023/08/10 06:17:37;;;;;;;6.97;3.35;;;;;;;;;;7370750;19;20013;-71
2023/08/10 06:20:09;;;;;;;8.20;3.35;;;;;;;;;;7372621;19;20469;-71
2023/08/10 06:22:39;;;;;;;7.15;3.47;;;;;;;;;;7371834;19;20407;-71
2023/08/10 06:25:05;;;;;;;6.53;3.28;;;;;;;;;;7385511;19;20003;-70
2023/08/10 06:27:31;;;;;;;6.05;3.10;;;;;;;;;;7388027;19;20010;-70
2023/08/10 06:29:57;;;;;;;7.72;2.80;;;;;;;;;;7373159;19;20564;-70
2023/08/10 06:32:22;;;;;;;5.43;3.20;;;;;;;;;;7359362;19;20015;-69
2023/08/10 06:34:47;;;;;;;8.00;3.28;;;;;;;;;;7369732;19;20010;-70
2023/08/10 06:37:15;;;;;;;6.25;3.08;;;;;;;;;;7371682;19;20013;-70
2023/08/10 06:39:41;;;;;;;12.68;3.70;;;;;;;;;;7392267;19;20471;-70
2023/08/10 06:42:06;;;;;;;6.38;3.40;;;;;;;;;;7371364;19;20353;-70
2023/08/10 06:44:32;;;;;;;9.82;3.45;;;;;;;;;;7370013;19;20017;-70
2023/08/10 06:46:57;;;;;;;7.15;3.75;;;;;;;;;;7369733;19;20010;-70
2023/08/10 06:49:23;;;;;;;11.32;4.03;;;;;;;;;;7371555;19;20058;-70
2023/08/10 06:51:50;;;;;;;10.10;4.25;;;;;;;;;;7394260;19;20240;-70
2023/08/10 06:54:15;;;;;;;9.70;4.38;;;;;;;;;;7366572;19;20010;-71
2023/08/10 06:56:40;;;;;;;10.68;4.07;;;;;;;;;;7369645;19;20019;-70
2023/08/10 06:59:07;;;;;;;14.35;4.20;;;;;;;;;;7369210;19;20021;-70
2023/08/10 07:01:32;;;;;;;16.48;4.60;;;;;;;;;;7369388;19;20540;-70
2023/08/10 07:03:58;;;;;;;12.23;4.68;;;;;;;;;;7388406;19;20010;-71
2023/08/10 07:06:23;;;;;;;17.95;4.60;;;;;;;;;;7366296;19;20031;-71
2023/08/10 07:08:52;;;;;;;15.05;4.30;;;;;;;;;;7370533;19;20027;-71
2023/08/10 07:11:17;;;;;;;20.45;4.20;;;;;;;;;;7370954;19;20007;-70
2023/08/10 07:13:42;;;;;;;10.77;4.20;;;;;;;;;;7363702;19;20499;-70
2023/08/10 07:16:08;;;;;;;12.32;4.78;;;;;;;;;;7369852;19;20661;-70
2023/08/10 07:18:33;;;;;;;14.20;4.65;;;;;;;;;;7390982;19;20475;-70
2023/08/10 07:21:01;;;;;;;12.52;4.45;;;;;;;;;;7370436;19;20468;-70
2023/08/10 07:23:27;;;;;;;13.73;4.40;;;;;;;;;;7373761;19;20017;-70
2023/08/10 07:25:55;;;;;;;9.77;3.58;;;;;;;;;;7373662;19;20035;-71
2023/08/10 07:28:23;;;;;;;17.35;4.65;;;;;;;;;;7378658;19;20027;-72
2023/08/10 07:30:51;;;;;;;20.13;5.28;;;;;;;;;;7398617;19;20095;-70
2023/08/10 07:33:17;;;;;;;15.65;4.35;;;;;;;;;;7372927;19;20007;-71
2023/08/10 07:35:43;;;;;;;20.02;4.72;;;;;;;;;;7368814;19;20406;-71
2023/08/10 07:38:09;;;;;;;12.02;4.30;;;;;;;;;;7370915;19;20017;-72
2023/08/10 07:40:34;;;;;;;21.10;4.78;;;;;;;;;;7369540;19;20034;-72
2023/08/10 07:42:59;;;;;;;17.85;5.07;;;;;;;;;;7391966;19;20415;-71
2023/08/10 07:45:25;;;;;;;18.65;4.30;;;;;;;;;;7367591;19;20031;-71
2023/08/10 07:47:50;;;;;;;23.13;4.88;;;;;;;;;;7371362;19;20002;-71
2023/08/10 07:50:15;;;;;;;23.25;5.28;;;;;;;;;;7370012;19;20069;-71
2023/08/10 07:52:41;;;;;;;10.90;4.95;;;;;;;;;;7370253;19;20436;-71
2023/08/10 07:55:06;;;;;;;15.05;3.90;;;;;;;;;;7367119;19;20478;-71
2023/08/10 07:57:32;;;;;;;8.15;4.38;;;;;;;;;;7391655;19;20006;-71
2023/08/10 08:00:00;;;;;;;9.98;3.97;;;;;;;;;;7368850;19;20066;-71
2023/08/10 08:02:28;;;;;;;10.88;4.35;;;;;;;;;;7369836;19;20007;-70
2023/08/10 08:04:53;;;;;;;12.82;4.20;;;;;;;;;;7368577;19;20035;-71
2023/08/10 08:07:19;;;;;;;8.07;3.80;;;;;;;;;;7368259;19;19999;-71
2023/08/10 08:09:44;;;;;;;8.35;4.20;;;;;;;;;;7390159;19;19999;-71
2023/08/10 08:12:09;;;;;;;10.45;4.35;;;;;;;;;;7369511;19;20105;-71
2023/08/10 08:14:35;;;;;;;7.55;3.90;;;;;;;;;;7366121;19;20014;-71
2023/08/10 08:17:01;;;;;;;6.63;3.83;;;;;;;;;;7367849;19;20143;-71
2023/08/10 08:19:27;;;;;;;8.35;3.33;;;;;;;;;;7369173;19;20007;-71
2023/08/10 08:21:52;;;;;;;7.35;3.83;;;;;;;;;;7390783;19;20017;-69
2023/08/10 08:24:17;;;;;;;12.80;4.07;;;;;;;;;;7367048;19;20099;-71
2023/08/10 08:26:43;;;;;;;13.52;3.92;;;;;;;;;;7366053;19;20002;-70
2023/08/10 08:29:08;;;;;;;10.30;3.53;;;;;;;;;;7370294;19;20381;-70
2023/08/10 08:31:34;;;;;;;11.88;3.40;;;;;;;;;;7368781;19;20564;-70
2023/08/10 08:34:00;;;;;;;8.38;3.50;;;;;;;;;;7386684;19;20039;-70
2023/08/10 08:36:25;;;;;;;7.63;3.53;;;;;;;;;;7368701;19;20472;-70
2023/08/10 08:38:51;;;;;;;7.25;3.60;;;;;;;;;;7367085;19;20013;-70
2023/08/10 08:41:18;;;;;;;9.82;3.45;;;;;;;;;;7368443;19;20066;-71
2023/08/10 08:43:45;;;;;;;7.68;3.40;;;;;;;;;;7367561;19;20098;-70
2023/08/10 08:46:12;;;;;;;10.85;3.38;;;;;;;;;;7369087;19;20050;-71
2023/08/10 08:48:37;;;;;;;8.02;3.40;;;;;;;;;;7390099;19;20456;-70
2023/08/10 08:51:04;;;;;;;8.98;3.63;;;;;;;;;;7368167;19;20098;-71
2023/08/10 08:53:31;;;;;;;9.70;3.30;;;;;;;;;;7368013;19;20002;-71
2023/08/10 08:55:56;;;;;;;10.18;3.42;;;;;;;;;;7368190;19;20488;-70
2023/08/10 08:58:22;;;;;;;9.23;3.25;;;;;;;;;;7368584;19;20018;-70
2023/08/10 09:00:54;;;;;;;9.57;3.15;;;;;;;;;;7390622;19;20034;-71
2023/08/10 09:03:25;;;;;;;9.15;3.22;;;;;;;;;;7367605;19;20044;-70
2023/08/10 09:05:51;;;;;;;11.88;3.83;;;;;;;;;;7364787;19;20010;-70
2023/08/10 09:08:19;;;;;;;8.23;3.42;;;;;;;;;;7367666;19;20003;-70
2023/08/10 09:10:45;;;;;;;11.98;3.45;;;;;;;;;;7368553;19;20014;-70
2023/08/10 09:13:14;;;;;;;8.90;3.40;;;;;;;;;;7366659;19;20003;-70
2023/08/10 09:15:39;;;;;;;10.98;3.45;;;;;;;;;;7388818;19;20007;-71
2023/08/10 09:18:06;;;;;;;10.40;3.58;;;;;;;;;;7368182;19;20018;-71
2023/08/10 09:20:31;;;;;;;8.98;3.60;;;;;;;;;;7366762;19;20010;-70
2023/08/10 09:22:58;;;;;;;12.00;3.60;;;;;;;;;;7368156;19;20103;-70
2023/08/10 09:25:24;;;;;;;9.68;3.40;;;;;;;;;;7363452;19;20801;-70
2023/08/10 09:27:50;;;;;;;11.15;3.47;;;;;;;;;;7389569;19;20009;-71
2023/08/10 09:30:18;;;;;;;10.18;3.28;;;;;;;;;;7374242;19;20690;-70
2023/08/10 09:32:43;;;;;;;7.10;3.00;;;;;;;;;;7374992;19;20011;-71
2023/08/10 09:35:15;;;;;;;12.35;3.72;;;;;;;;;;7373343;19;20021;-71
2023/08/10 09:37:41;;;;;;;13.05;3.47;;;;;;;;;;7373662;19;20062;-70
2023/08/10 09:40:10;;;;;;;12.30;3.10;;;;;;;;;;7374917;19;20544;-70
2023/08/10 09:42:38;;;;;;;7.60;3.15;;;;;;;;;;7392925;19;20382;-70
2023/08/10 09:45:08;;;;;;;6.68;2.60;;;;;;;;;;7370517;19;20404;-70
2023/08/10 09:47:41;;;;;;;10.70;3.60;;;;;;;;;;7372455;19;20006;-71
2023/08/10 09:50:09;;;;;;;11.85;3.10;;;;;;;;;;7372728;19;20007;-71
2023/08/10 09:52:36;;;;;;;7.15;2.80;;;;;;;;;;7371975;19;20045;-70
2023/08/10 09:55:02;;;;;;;9.77;2.97;;;;;;;;;;7393310;19;19998;-71
2023/08/10 09:57:28;;;;;;;6.10;2.97;;;;;;;;;;7373911;19;20013;-70
2023/08/10 09:59:54;;;;;;;6.90;3.10;;;;;;;;;;7372844;19;20038;-70
2023/08/10 10:02:21;;;;;;;10.45;3.13;;;;;;;;;;7373293;19;20010;-70
2023/08/10 10:04:47;;;;;;;8.23;2.97;;;;;;;;;;7372809;19;20359;-70
2023/08/10 10:07:13;;;;;;;7.50;2.70;;;;;;;;;;7371492;19;20453;-71
2023/08/10 10:09:39;;;;;;;8.13;3.15;;;;;;;;;;7395114;19;20005;-71
2023/08/10 10:12:14;;;;;;;5.70;2.58;;;;;;;;;;7373347;19;20006;-71
2023/08/10 10:14:47;;;;;;;6.18;3.13;;;;;;;;;;7371849;19;20078;-71
2023/08/10 10:17:15;;;;;;;8.52;3.17;;;;;;;;;;7373434;19;20024;-71
2023/08/10 10:19:40;;;;;;;10.95;3.17;;;;;;;;;;7373232;19;20026;-71
2023/08/10 10:22:06;;;;;;;9.23;3.08;;;;;;;;;;7374181;19;20004;-70
2023/08/10 10:24:33;;;;;;;7.63;3.00;;;;;;;;;;7392276;19;20524;-71
2023/08/10 10:27:10;;;;;;;6.95;2.92;;;;;;;;;;7370498;19;19999;-71
2023/08/10 10:29:59;;;;;;;9.60;2.90;;;;;;;;;;7370826;19;20006;-72
2023/08/10 10:32:25;;;;;;;8.63;3.28;;;;;;;;;;7371041;19;20003;-71
2023/08/10 10:34:53;;;;;;;6.78;3.20;;;;;;;;;;7367948;19;20012;-72
2023/08/10 10:37:29;;;;;;;6.35;2.95;;;;;;;;;;7369692;19;20027;-71
2023/08/10 10:40:15;;;;;;;6.38;2.95;;;;;;;;;;7390439;19;20002;-72
2023/08/10 10:43:03;;;;;;;9.13;2.85;;;;;;;;;;7370421;19;20003;-70
2023/08/10 10:45:33;;;;;;;9.57;3.55;;;;;;;;;;7366655;19;19999;-71
2023/08/10 10:47:59;;;;;;;10.60;3.60;;;;;;;;;;7371025;19;20368;-70
2023/08/10 10:50:28;;;;;;;8.35;3.00;;;;;;;;;;7371228;19;20073;-72
2023/08/10 10:53:03;;;;;;;5.82;2.80;;;;;;;;;;7371082;19;20014;-71
2023/08/10 10:55:52;;;;;;;6.70;3.00;;;;;;;;;;7370333;19;20002;-71
2023/08/10 10:58:17;;;;;;;7.65;3.13;;;;;;;;;;7372809;19;20002;-71
2023/08/10 11:00:44;;;;;;;8.23;2.60;;;;;;;;;;7393338;19;20019;-73
2023/08/10 11:03:10;;;;;;;9.48;3.47;;;;;;;;;;7371799;19;20010;-71
2023/08/10 11:05:37;;;;;;;6.05;2.88;;;;;;;;;;7370370;19;20433;-72
2023/08/10 11:08:06;;;;;;;4.38;2.42;;;;;;;;;;7370736;19;20077;-72
2023/08/10 11:10:35;;;;;;;6.72;3.00;;;;;;;;;;7370935;19;20653;-72
2023/08/10 11:13:03;;;;;;;7.25;3.33;;;;;;;;;;7392933;19;20007;-71
2023/08/10 11:15:29;;;;;;;7.13;3.30;;;;;;;;;;7369010;19;20609;-71
2023/08/10 11:17:54;;;;;;;7.68;3.20;;;;;;;;;;7380079;19;20006;-70
2023/08/10 11:20:21;;;;;;;7.07;2.88;;;;;;;;;;7406957;19;20013;-70
2023/08/10 11:22:51;;;;;;;5.97;3.20;;;;;;;;;;7403720;19;20010;-71
2023/08/10 11:25:18;;;;;;;7.65;3.22;;;;;;;;;;7383170;19;20007;-70
2023/08/10 11:27:47;;;;;;;7.53;2.92;;;;;;;;;;7398097;19;20058;-71
2023/08/10 11:30:21;;;;;;;6.07;3.20;;;;;;;;;;7372022;19;20018;-72
2023/08/10 11:32:48;;;;;;;9.77;2.90;;;;;;;;;;7372486;19;20488;-70
2023/08/10 11:35:17;;;;;;;7.38;3.00;;;;;;;;;;7369764;19;20002;-71
2023/08/10 11:37:43;;;;;;;5.45;2.85;;;;;;;;;;7370980;19;20009;-71
2023/08/10 11:40:11;;;;;;;7.72;3.00;;;;;;;;;;7370206;19;20006;-72
2023/08/10 11:42:37;;;;;;;9.55;3.00;;;;;;;;;;7392602;19;20005;-71
2023/08/10 11:45:23;;;;;;;6.75;2.75;;;;;;;;;;7367510;19;20006;-71
2023/08/10 11:47:51;;;;;;;7.32;3.17;;;;;;;;;;7369413;19;20394;-71
2023/08/10 11:50:18;;;;;;;6.78;2.95;;;;;;;;;;7369910;19;20014;-71
2023/08/10 11:52:44;;;;;;;6.80;3.00;;;;;;;;;;7369122;19;20002;-71
2023/08/10 11:55:15;;;;;;;6.45;2.70;;;;;;;;;;7368417;19;20019;-70
2023/08/10 11:57:46;;;;;;;7.88;3.30;;;;;;;;;;7391999;19;20481;-70
2023/08/10 12:00:16;;;;;;;4.97;2.75;;;;;;;;;;7370345;19;20030;-72
2023/08/10 12:02:55;;;;;;;7.40;3.53;;;;;;;;;;7370523;19;20023;-71
2023/08/10 12:05:46;;;;;;;7.40;3.42;;;;;;;;;;7368660;19;20007;-72
2023/08/10 12:08:38;;;;;;;8.20;3.35;;;;;;;;;;7370026;19;20017;-71
2023/08/10 12:11:03;;;;;;;7.43;3.00;;;;;;;;;;7370114;19;20014;-72
2023/08/10 12:13:30;;;;;;;7.50;3.10;;;;;;;;;;7368686;19;20097;-71
2023/08/10 12:15:57;;;;;;;6.30;3.03;;;;;;;;;;7392099;19;20433;-71
2023/08/10 12:18:23;;;;;;;6.07;2.90;;;;;;;;;;7368983;19;20035;-72
2023/08/10 12:20:51;;;;;;;5.85;2.60;;;;;;;;;;7369542;19;20006;-72
2023/08/10 12:23:17;;;;;;;4.53;2.65;;;;;;;;;;7369646;19;20038;-72
2023/08/10 12:25:44;;;;;;;8.77;2.88;;;;;;;;;;7367944;19;20010;-71
2023/08/10 12:28:10;;;;;;;4.63;2.60;;;;;;;;;;7368643;19;20010;-72
2023/08/10 12:30:37;;;;;;;3.70;2.20;;;;;;;;;;7389227;19;20045;-71
2023/08/10 12:33:02;;;;;;;4.75;2.28;;;;;;;;;;7368733;19;20035;-71
2023/08/10 12:35:28;;;;;;;4.32;2.40;;;;;;;;;;7365821;19;20007;-71
2023/08/10 12:37:54;;;;;;;5.68;2.60;;;;;;;;;;7369838;19;20006;-72
2023/08/10 12:40:20;;;;;;;4.45;2.20;;;;;;;;;;7368337;19;20018;-71
2023/08/10 12:42:45;;;;;;;5.53;2.25;;;;;;;;;;7391031;19;20403;-71
2023/08/10 12:45:12;;;;;;;6.97;2.50;;;;;;;;;;7366850;19;20036;-71
2023/08/10 12:47:41;;;;;;;4.78;2.35;;;;;;;;;;7368917;19;20021;-71
2023/08/10 12:50:09;;;;;;;4.82;2.30;;;;;;;;;;7367930;19;20014;-72
2023/08/10 12:52:35;;;;;;;5.55;2.35;;;;;;;;;;7368105;19;20015;-71
2023/08/10 12:55:01;;;;;;;4.43;2.30;;;;;;;;;;7388258;19;20003;-70
2023/08/10 12:57:27;;;;;;;5.07;2.60;;;;;;;;;;7366940;19;20018;-71
2023/08/10 12:59:53;;;;;;;4.35;2.35;;;;;;;;;;7368353;19;20022;-71
2023/08/10 13:02:18;;;;;;;4.82;2.20;;;;;;;;;;7368026;19;20007;-70
2023/08/10 13:04:45;;;;;;;5.35;2.30;;;;;;;;;;7370726;19;20038;-71
2023/08/10 13:07:11;;;;;;;5.45;2.22;;;;;;;;;;7372697;19;20022;-70
2023/08/10 13:09:36;;;;;;;3.80;1.90;;;;;;;;;;7395727;19;20006;-70
2023/08/10 13:12:02;;;;;;;8.70;2.17;;;;;;;;;;7374412;19;20464;-71
2023/08/10 13:14:27;;;;;;;3.63;2.10;;;;;;;;;;7373659;19;20020;-71
2023/08/10 13:16:52;;;;;;;10.05;2.15;;;;;;;;;;7373657;19;20363;-71
2023/08/10 13:19:18;;;;;;;6.97;2.20;;;;;;;;;;7374272;19;20402;-72
2023/08/10 13:21:44;;;;;;;4.38;2.10;;;;;;;;;;7396516;19;19995;-71
2023/08/10 13:24:10;;;;;;;2.90;2.10;;;;;;;;;;7370888;19;20041;-72
2023/08/10 13:26:35;;;;;;;3.55;2.28;;;;;;;;;;7372838;19;20441;-67
2023/08/10 13:29:00;;;;;;;2.53;1.80;;;;;;;;;;7373663;19;20887;-72
2023/08/10 13:31:26;;;;;;;4.07;2.05;;;;;;;;;;7373719;19;20006;-68
2023/08/10 13:33:52;;;;;;;4.88;2.10;;;;;;;;;;7394561;19;20002;-68
2023/08/10 13:36:17;;;;;;;5.03;2.08;;;;;;;;;;7373777;19;20006;-68
2023/08/10 13:38:42;;;;;;;3.22;1.70;;;;;;;;;;7373036;19;20536;-69
2023/08/10 13:41:08;;;;;;;3.75;1.92;;;;;;;;;;7373496;19;20014;-68
2023/08/10 13:43:33;;;;;;;4.30;1.80;;;;;;;;;;7373417;19;20030;-69
2023/08/10 13:45:58;;;;;;;3.92;1.83;;;;;;;;;;7395303;19;19990;-68
2023/08/10 13:48:23;;;;;;;4.20;2.03;;;;;;;;;;7373570;19;20043;-68
2023/08/10 13:50:49;;;;;;;3.22;1.92;;;;;;;;;;7374085;19;20248;-67
2023/08/10 13:53:15;;;;;;;5.15;2.00;;;;;;;;;;7370887;19;20022;-67
2023/08/10 13:55:40;;;;;;;3.40;2.00;;;;;;;;;;7370277;19;20013;-68
2023/08/10 13:58:05;;;;;;;13.32;2.30;;;;;;;;;;7374822;19;19998;-68
2023/08/10 14:00:31;;;;;;;4.13;2.15;;;;;;;;;;7390536;19;20094;-68
2023/08/10 14:02:56;;;;;;;4.68;2.08;;;;;;;;;;7372194;19;20773;-68
2023/08/10 14:05:22;;;;;;;3.85;1.90;;;;;;;;;;7371017;19;20010;-67
2023/08/10 14:07:47;;;;;;;5.72;1.90;;;;;;;;;;7371980;19;20010;-67
2023/08/10 14:10:12;;;;;;;4.13;2.00;;;;;;;;;;7373732;19;20002;-67
2023/08/10 14:12:38;;;;;;;3.30;2.00;;;;;;;;;;7393329;19;20396;-67
2023/08/10 14:15:04;;;;;;;7.03;2.78;;;;;;;;;;7367346;19;20013;-68
2023/08/10 14:17:32;;;;;;;7.05;2.05;;;;;;;;;;7372545;19;20081;-68
2023/08/10 14:19:57;;;;;;;4.60;2.08;;;;;;;;;;7372588;19;20017;-67
2023/08/10 14:22:23;;;;;;;4.18;2.25;;;;;;;;;;7372904;19;20077;-67
2023/08/10 14:24:48;;;;;;;4.20;1.90;;;;;;;;;;7392296;19;20006;-68
2023/08/10 14:27:14;;;;;;;4.80;2.33;;;;;;;;;;7370570;19;20017;-67
2023/08/10 14:29:39;;;;;;;3.40;1.77;;;;;;;;;;7370783;19;20014;-67
2023/08/10 14:32:05;;;;;;;3.20;1.80;;;;;;;;;;7373810;19;20014;-67
2023/08/10 14:34:30;;;;;;;4.25;2.00;;;;;;;;;;7371373;19;20393;-67
2023/08/10 14:36:55;;;;;;;3.88;1.90;;;;;;;;;;7389167;19;20002;-67
2023/08/10 14:39:21;;;;;;;3.22;1.90;;;;;;;;;;7372122;19;20015;-67